Time;durP1;ratioP1;P1;durP2;ratioP2;P2;SDS_P1;SDS_P2;PMS_P1;PMS_P2;Temp;Humidity;BMP_temperature;BMP_pressure;BME280_temperature;BME280_humidity;BME280_pressure;Samples;Min_cycle;Max_cycle;Signal;HPM_P1;HPM_P2
2022/12/15 08:07:07;;;;;;;12.00;8.20;;;;;;;;;;12713652;23;2126047;-83
2022/12/15 08:12:08;;;;;;;17.58;12.70;;;;;;;;;;12740916;23;20002;-86
2022/12/15 08:17:09;;;;;;;21.13;15.43;;;;;;;;;;12761805;23;20057;-87
2022/12/15 08:22:11;;;;;;;22.40;15.45;;;;;;;;;;12770123;23;20002;-82
2022/12/15 08:27:23;;;;;;;;;;;;;;;;;;12753346;23;20064;-86
2022/12/15 08:38:18;;;;;;;16.73;12.98;;;;;;;;;;12795270;23;20061;-85
2022/12/15 09:06:51;;;;;;;17.17;12.27;;;;;;;;;;12514250;23;20075;-86
2022/12/15 09:17:41;;;;;;;15.93;11.25;;;;;;;;;;12517759;23;20003;-85
2022/12/15 09:22:49;;;;;;;17.50;12.45;;;;;;;;;;12550702;23;20011;-86
2022/12/15 09:27:56;;;;;;;18.35;12.88;;;;;;;;;;12737928;23;20084;-84
2022/12/15 09:32:57;;;;;;;14.75;10.57;;;;;;;;;;12734694;23;20017;-85
2022/12/15 09:37:58;;;;;;;15.63;11.45;;;;;;;;;;12734127;23;20034;-85
2022/12/15 09:43:00;;;;;;;15.20;10.90;;;;;;;;;;12731742;23;20012;-86
2022/12/15 09:48:04;;;;;;;15.75;11.23;;;;;;;;;;12735944;23;20338;-85
2022/12/15 09:53:10;;;;;;;15.68;10.50;;;;;;;;;;12731809;23;20005;-83
2022/12/15 09:58:26;;;;;;;13.32;10.25;;;;;;;;;;12732682;23;19993;-83
2022/12/15 10:03:45;;;;;;;18.92;12.18;;;;;;;;;;12782958;23;20021;-82
2022/12/15 10:08:49;;;;;;;18.30;12.38;;;;;;;;;;12759581;23;20021;-83
2022/12/15 10:13:51;;;;;;;15.52;10.70;;;;;;;;;;12757413;23;20016;-82
2022/12/15 10:19:01;;;;;;;14.77;9.98;;;;;;;;;;12752611;23;20076;-83
2022/12/15 10:24:28;;;;;;;16.80;11.07;;;;;;;;;;12754635;23;20013;-81
2022/12/15 10:29:40;;;;;;;19.77;13.35;;;;;;;;;;12753793;23;20048;-83
2022/12/15 10:34:42;;;;;;;14.65;10.02;;;;;;;;;;12761721;23;19998;-84
2022/12/15 10:39:44;;;;;;;16.52;11.60;;;;;;;;;;12742733;23;20033;-85
2022/12/15 10:44:45;;;;;;;13.27;9.65;;;;;;;;;;12739087;23;20020;-84
2022/12/15 10:49:47;;;;;;;16.67;11.88;;;;;;;;;;12767550;23;20073;-84
2022/12/15 10:54:48;;;;;;;;;;;;;;;;;;12746592;23;20037;-84
2022/12/15 10:59:49;;;;;;;;;;;;;;;;;;12745964;23;19968;-85
2022/12/15 11:04:55;;;;;;;15.52;10.20;;;;;;;;;;12735318;23;19935;-85
2022/12/15 11:09:59;;;;;;;15.57;9.85;;;;;;;;;;12735207;23;20018;-85
2022/12/15 11:15:00;;;;;;;14.82;10.27;;;;;;;;;;12735364;23;20006;-85
2022/12/15 11:20:01;;;;;;;;;;;;;;;;;;12741592;23;20025;-86
2022/12/15 11:25:06;;;;;;;17.00;12.05;;;;;;;;;;12734669;23;19927;-85
2022/12/15 11:30:12;;;;;;;18.30;11.50;;;;;;;;;;12734325;23;20005;-84
2022/12/15 11:35:14;;;;;;;19.20;13.10;;;;;;;;;;12746681;23;20005;-85
2022/12/15 11:40:34;;;;;;;18.23;12.73;;;;;;;;;;12773974;23;20024;-84
2022/12/15 11:45:39;;;;;;;18.07;13.37;;;;;;;;;;12739382;23;20065;-84
2022/12/15 11:50:43;;;;;;;17.50;12.60;;;;;;;;;;12765551;23;20486;-83
2022/12/15 11:55:53;;;;;;;16.83;11.43;;;;;;;;;;12742298;23;20028;-86
2022/12/15 12:00:57;;;;;;;16.27;11.30;;;;;;;;;;12748045;23;20005;-84
2022/12/15 12:06:11;;;;;;;17.33;11.85;;;;;;;;;;12766100;23;20268;-83
2022/12/15 12:11:25;;;;;;;18.77;13.23;;;;;;;;;;12742510;23;20009;-81
2022/12/15 12:16:26;;;;;;;16.00;11.60;;;;;;;;;;12770315;23;20037;-81
2022/12/15 12:21:38;;;;;;;17.63;12.57;;;;;;;;;;12781406;23;20146;-83
2022/12/15 12:26:45;;;;;;;16.33;11.45;;;;;;;;;;12770584;23;20013;-82
2022/12/15 12:31:51;;;;;;;24.50;16.15;;;;;;;;;;12736110;23;20002;-84
2022/12/15 12:36:53;;;;;;;19.30;13.73;;;;;;;;;;12740265;23;20005;-83
2022/12/15 12:41:57;;;;;;;17.98;13.13;;;;;;;;;;12746956;23;20002;-82
2022/12/15 12:46:59;;;;;;;18.48;12.63;;;;;;;;;;12765505;23;20013;-82
2022/12/15 12:52:02;;;;;;;15.68;10.43;;;;;;;;;;12751854;23;20006;-82
2022/12/15 12:57:13;;;;;;;16.48;12.45;;;;;;;;;;12745076;23;20016;-83
2022/12/15 13:02:13;;;;;;;19.23;12.95;;;;;;;;;;12748705;23;20085;-82
2022/12/15 13:07:35;;;;;;;18.42;13.95;;;;;;;;;;12763601;23;19998;-83
2022/12/15 13:12:36;;;;;;;;;;;;;;;;;;12759758;23;20013;-82
2022/12/15 13:17:43;;;;;;;20.52;13.20;;;;;;;;;;12764677;23;19889;-83
2022/12/15 13:22:44;;;;;;;17.63;12.93;;;;;;;;;;12764630;23;20048;-83
2022/12/15 13:27:50;;;;;;;18.40;13.68;;;;;;;;;;12790298;23;19989;-83
2022/12/15 13:32:53;;;;;;;16.98;11.25;;;;;;;;;;12758570;23;20016;-82
2022/12/15 13:37:55;;;;;;;22.10;11.98;;;;;;;;;;12760306;23;20104;-82
2022/12/15 13:42:58;;;;;;;13.40;10.18;;;;;;;;;;12765297;23;20005;-82
2022/12/15 13:48:00;;;;;;;19.13;12.82;;;;;;;;;;12784714;23;19998;-83
2022/12/15 13:53:02;;;;;;;15.25;11.35;;;;;;;;;;12740015;23;20005;-83
2022/12/15 13:58:13;;;;;;;21.60;12.73;;;;;;;;;;12749433;23;20010;-84
2022/12/15 14:03:14;;;;;;;16.48;10.73;;;;;;;;;;12750893;23;20013;-84
2022/12/15 14:08:16;;;;;;;16.77;11.88;;;;;;;;;;12770602;23;20005;-82
2022/12/15 14:13:17;;;;;;;16.65;13.45;;;;;;;;;;12740972;23;20430;-82
2022/12/15 14:18:40;;;;;;;16.63;12.10;;;;;;;;;;12767964;23;19997;-82
2022/12/15 14:23:43;;;;;;;16.33;12.07;;;;;;;;;;12766405;23;20009;-82
2022/12/15 14:28:45;;;;;;;19.73;13.65;;;;;;;;;;12759581;23;19997;-83
2022/12/15 14:33:49;;;;;;;18.60;13.13;;;;;;;;;;12737373;23;20363;-83
2022/12/15 14:38:53;;;;;;;13.70;11.27;;;;;;;;;;12734873;23;20005;-84
2022/12/15 14:44:02;;;;;;;18.08;13.60;;;;;;;;;;12735249;23;20076;-83
2022/12/15 14:49:05;;;;;;;16.42;12.18;;;;;;;;;;12740141;23;20005;-83
2022/12/15 14:54:06;;;;;;;16.20;11.93;;;;;;;;;;12758065;23;20359;-83
2022/12/15 14:59:19;;;;;;;18.52;13.38;;;;;;;;;;12758657;23;20004;-84
2022/12/15 15:04:31;;;;;;;19.25;12.73;;;;;;;;;;12735064;23;20061;-83
2022/12/15 15:09:32;;;;;;;18.95;13.40;;;;;;;;;;12746063;23;20006;-83
2022/12/15 15:14:52;;;;;;;17.88;13.65;;;;;;;;;;12781248;23;20041;-84
2022/12/15 15:19:56;;;;;;;18.45;12.68;;;;;;;;;;12759404;23;20010;-83
2022/12/15 15:24:58;;;;;;;24.85;16.23;;;;;;;;;;12741393;23;20017;-81
2022/12/15 15:29:58;;;;;;;;;;;;;;;;;;12777158;23;20025;-84
2022/12/15 15:34:59;;;;;;;20.35;14.73;;;;;;;;;;12777670;23;19901;-84
2022/12/15 15:40:00;;;;;;;;;;;;;;;;;;12762605;23;20013;-83
2022/12/15 15:45:01;;;;;;;21.73;15.32;;;;;;;;;;12791419;23;19908;-83
2022/12/15 15:50:03;;;;;;;19.60;13.73;;;;;;;;;;12766190;23;19998;-84
2022/12/15 15:55:05;;;;;;;17.90;14.18;;;;;;;;;;12755651;23;20009;-83
2022/12/15 16:00:17;;;;;;;18.05;13.93;;;;;;;;;;12763190;23;20005;-83
2022/12/15 16:05:19;;;;;;;19.27;15.13;;;;;;;;;;12736545;23;20080;-83
2022/12/15 16:10:20;;;;;;;18.60;14.07;;;;;;;;;;12749642;23;20028;-83
2022/12/15 16:15:22;;;;;;;;;;;;;;;;;;12764845;23;20009;-84
2022/12/15 16:20:25;;;;;;;21.45;13.45;;;;;;;;;;12768706;23;19905;-85
2022/12/15 16:25:29;;;;;;;19.73;14.95;;;;;;;;;;12765024;23;20025;-83
2022/12/15 16:30:30;;;;;;;18.52;14.23;;;;;;;;;;12653697;23;20018;-78
2022/12/15 16:35:31;;;;;;;;;;;;;;;;;;12553672;23;20481;-77
2022/12/15 16:40:36;;;;;;;20.30;14.18;;;;;;;;;;12552594;23;19912;-77
2022/12/15 16:45:37;;;;;;;18.92;14.63;;;;;;;;;;12553091;23;20003;-77
2022/12/15 16:50:40;;;;;;;19.42;14.13;;;;;;;;;;12554302;23;20007;-77
2022/12/15 16:55:41;;;;;;;20.85;16.40;;;;;;;;;;12547764;23;20018;-79
2022/12/15 17:00:42;;;;;;;;;;;;;;;;;;12538856;23;20003;-78
2022/12/15 17:05:47;;;;;;;21.40;16.23;;;;;;;;;;12552999;23;19925;-79
2022/12/15 17:10:49;;;;;;;22.20;17.13;;;;;;;;;;12567765;23;20078;-78
2022/12/15 17:15:50;;;;;;;21.27;16.88;;;;;;;;;;12581083;23;20007;-78
2022/12/15 17:20:52;;;;;;;25.90;19.17;;;;;;;;;;12569674;23;20013;-78
2022/12/15 17:25:53;;;;;;;44.45;23.65;;;;;;;;;;12557542;23;20011;-81
2022/12/15 17:30:54;;;;;;;33.75;26.38;;;;;;;;;;12557696;23;20019;-80
2022/12/15 17:35:59;;;;;;;34.15;25.38;;;;;;;;;;12554224;23;20006;-79
2022/12/15 17:41:00;;;;;;;27.00;21.13;;;;;;;;;;12576291;23;19999;-80
2022/12/15 17:46:01;;;;;;;22.75;18.33;;;;;;;;;;12576437;23;20058;-80
2022/12/15 17:51:02;;;;;;;;;;;;;;;;;;12544519;23;20014;-78
2022/12/15 17:56:04;;;;;;;25.23;18.63;;;;;;;;;;12538016;23;19906;-78
2022/12/15 18:01:06;;;;;;;23.50;18.13;;;;;;;;;;12563858;23;20069;-79
2022/12/15 18:06:14;;;;;;;21.45;17.10;;;;;;;;;;12537940;23;20014;-79
2022/12/15 18:11:15;;;;;;;22.13;17.42;;;;;;;;;;12536376;23;20006;-78
2022/12/15 18:16:17;;;;;;;22.08;16.45;;;;;;;;;;12562552;23;20392;-78
2022/12/15 18:21:19;;;;;;;19.77;15.85;;;;;;;;;;12536949;23;20007;-79
2022/12/15 18:26:22;;;;;;;19.65;16.05;;;;;;;;;;12563253;23;20007;-78
2022/12/15 18:31:24;;;;;;;18.58;15.50;;;;;;;;;;12512974;23;20519;-78
2022/12/15 18:36:26;;;;;;;20.05;15.45;;;;;;;;;;12535852;23;20050;-79
2022/12/15 18:41:30;;;;;;;;;;;;;;;;;;12537502;23;20427;-79
2022/12/15 18:46:31;;;;;;;18.52;14.43;;;;;;;;;;12536793;23;19905;-79
2022/12/15 18:51:32;;;;;;;;;;;;;;;;;;12537026;23;20007;-79
2022/12/15 18:56:38;;;;;;;21.08;16.85;;;;;;;;;;12537909;23;19905;-79
2022/12/15 19:01:39;;;;;;;19.35;15.10;;;;;;;;;;12536712;23;20042;-79
2022/12/15 19:06:40;;;;;;;21.60;16.70;;;;;;;;;;12541104;23;20035;-79
2022/12/15 19:12:16;;;;;;;17.63;15.02;;;;;;;;;;12536913;23;20467;-79
2022/12/15 19:22:28;;;;;;;27.50;19.90;;;;;;;;;;12540425;23;20011;-79
2022/12/15 19:27:29;;;;;;;23.00;17.63;;;;;;;;;;12561918;23;20137;-79
2022/12/15 19:32:30;;;;;;;31.08;23.98;;;;;;;;;;12535662;23;20007;-79
2022/12/15 19:37:31;;;;;;;28.60;21.67;;;;;;;;;;12535605;23;20047;-80
2022/12/15 19:42:36;;;;;;;25.63;17.95;;;;;;;;;;12534875;23;20029;-77
2022/12/15 19:47:38;;;;;;;23.60;17.35;;;;;;;;;;12535855;23;20090;-78
2022/12/15 19:52:39;;;;;;;28.83;21.75;;;;;;;;;;12537246;23;20098;-78
2022/12/15 19:57:40;;;;;;;25.05;20.73;;;;;;;;;;12535953;23;20451;-78
2022/12/15 20:02:41;;;;;;;24.70;19.98;;;;;;;;;;12539062;23;20090;-78
2022/12/15 20:07:42;;;;;;;;;;;;;;;;;;12540444;23;20010;-78
2022/12/15 20:12:43;;;;;;;27.38;21.95;;;;;;;;;;12541385;23;19905;-78
2022/12/15 20:17:44;;;;;;;23.90;19.10;;;;;;;;;;12540014;23;20023;-77
